If you wish to contribute or participate in the discussions about articles you are invited to join SKYbrary as a registered user

 Actions

Nancy-Ochey (BA 133) Air Base

From SKYbrary Wiki

LFSO /
Revision as of 20:13, 16 February 2015 by Timo.Kouwenhoven (talk | contribs) (LF Airports CSV import)
(diff) ← Older revision | Latest revision (diff) | Newer revision → (diff)
Airport
ICAO: LFSO
Summary
Name Nancy-Ochey (BA 133) Air Base
Region Europe
Territory France FR.gif
Location , Lorraine
Serving Nancy
Elevation 337.109 m
1,106 ft
1,106 ft337.109 m
Type medium airport
Coordinates 48° 34' 59.00" N, 5° 57' 18.00" E
Runways
Designator Length Width Surface ROPS
2/20 2401 m7,877.297 ft
45 m147.638 ft
CON /


METAR
Observation LFSO 251000Z AUTO 22015KT 4800 -DZ BR OVC006 07/07 Q1006 BECMG 8000 RA
Station Nancy / Ochey
Date/Time 25 February 2020 10:00:00
Wind direction 220°
Wind speed 15 kts
Lowest cloud amount overcast
Temperature 7°C
Dew point 7°C
Humidity 100%
QNH 1006 hPa
Weather condition n/a